This is the latest recevied weather packets stored in our database for station/object DL8FX-6. If no packets are shown the sender has not sent any weather packets the latest 10 day(s).
| Time | Temp. | Humidity | Pressure | Rain* | Wind** | Luminosity | Snow |
|---|---|---|---|---|---|---|---|
| 1777143628 | 10° C | 62% | 1011.2 hPa | 0 mm | - | - | - |
| 1777138273 | 13.89° C | 53% | 1010 hPa | 0 mm | - | - | - |
| 1777137045 | 15° C | 50% | 1009.8 hPa | 0 mm | - | - | - |
| 1777129853 | 17.78° C | 43% | 1009.7 hPa | 0 mm | - | - | - |
| 1777128041 | 18.33° C | 41% | 1010 hPa | 0 mm | - | - | - |
| 1777123270 | 18.33° C | 42% | 1010.6 hPa | 0 mm | - | - | - |
| 1777122062 | 17.78° C | 42% | 1010.7 hPa | 0 mm | - | - | - |
| 1777120854 | 17.78° C | 42% | 1010.6 hPa | 0 mm | - | - | - |
| 1777117229 | 16.67° C | 47% | 1011.1 hPa | 0 mm | - | - | - |
| 1777116645 | 16.11° C | 47% | 1011.1 hPa | 0 mm | - | - | - |
| 1777114290 | 15.56° C | 50% | 1011.5 hPa | 0 mm | - | - | - |
| 1777113665 | 16.11° C | 51% | 1011.6 hPa | 0 mm | - | - | - |
| 1777108873 | 13.89° C | 52% | 1012.1 hPa | 0 mm | - | - | - |
| 1777105872 | 12.78° C | 56% | 1012.3 hPa | 0 mm | - | - | - |
| 1777104665 | 11.67° C | 64% | 1012.3 hPa | 0 mm | - | - | - |
| 1777099230 | 7.78° C | 73% | 1012.8 hPa | 0 mm | - | - | - |
| 1777098022 | 7.78° C | 74% | 1012.7 hPa | 0 mm | - | - | - |
| 1777092646 | 6.67° C | 84% | 1012.3 hPa | 0 mm | - | - | - |
| 1777087271 | 6.67° C | 83% | 1012.4 hPa | 0 mm | - | - | - |
| 1777084855 | 7.22° C | 84% | 1012.6 hPa | 0 mm | - | - | - |
| 1777079420 | 7.78° C | 84% | 1012.9 hPa | 0 mm | - | - | - |
| 1777078816 | 7.78° C | 84% | 1013.1 hPa | 0 mm | - | - | - |
| 1777073440 | 7.78° C | 88% | 1013.6 hPa | 0 mm | - | - | - |
| 1777072232 | 7.78° C | 88% | 1013.6 hPa | 0 mm | - | - | - |
| 1777070421 | 7.22° C | 91% | 1013.9 hPa | 0 mm | - | - | - |
* Rain latest hour (hover to see other rain measurements)
** Current wind speed in m/s (hover to see current wind gust speed)